sensor_id;sensor_type;location;lat;lon;timestamp;temperature;humidity
37478;DHT22;23334;54.316;10.182;2023-06-22T00:00:49;13.90;99.90
37478;DHT22;23334;54.316;10.182;2023-06-22T00:03:15;13.80;99.90
37478;DHT22;23334;54.316;10.182;2023-06-22T00:10:33;13.70;99.90
37478;DHT22;23334;54.316;10.182;2023-06-22T00:12:58;13.60;99.90
37478;DHT22;23334;54.316;10.182;2023-06-22T00:15:24;13.60;99.90
37478;DHT22;23334;54.316;10.182;2023-06-22T00:17:50;13.50;99.90
37478;DHT22;23334;54.316;10.182;2023-06-22T00:20:16;13.60;99.90
37478;DHT22;23334;54.316;10.182;2023-06-22T00:22:44;13.50;99.90
37478;DHT22;23334;54.316;10.182;2023-06-22T00:25:10;13.70;99.90
37478;DHT22;23334;54.316;10.182;2023-06-22T00:27:36;13.40;99.90
37478;DHT22;23334;54.316;10.182;2023-06-22T00:30:02;13.40;99.90
37478;DHT22;23334;54.316;10.182;2023-06-22T00:34:53;13.30;99.90
37478;DHT22;23334;54.316;10.182;2023-06-22T00:37:19;13.30;99.90
37478;DHT22;23334;54.316;10.182;2023-06-22T00:39:44;13.20;99.90
37478;DHT22;23334;54.316;10.182;2023-06-22T00:44:36;13.20;99.90
37478;DHT22;23334;54.316;10.182;2023-06-22T00:47:02;13.10;99.90
37478;DHT22;23334;54.316;10.182;2023-06-22T00:49:28;13.10;99.90
37478;DHT22;23334;54.316;10.182;2023-06-22T00:54:20;13.00;99.90
37478;DHT22;23334;54.316;10.182;2023-06-22T00:56:51;13.00;99.90
37478;DHT22;23334;54.316;10.182;2023-06-22T00:59:20;13.00;99.90
37478;DHT22;23334;54.316;10.182;2023-06-22T01:04:12;13.00;99.90
37478;DHT22;23334;54.316;10.182;2023-06-22T01:06:51;13.00;99.90
37478;DHT22;23334;54.316;10.182;2023-06-22T01:09:23;13.00;99.90
37478;DHT22;23334;54.316;10.182;2023-06-22T01:11:57;13.00;99.90
37478;DHT22;23334;54.316;10.182;2023-06-22T01:14:31;13.00;99.90
37478;DHT22;23334;54.316;10.182;2023-06-22T01:17:01;13.00;99.90
37478;DHT22;23334;54.316;10.182;2023-06-22T01:19:44;13.00;99.90
37478;DHT22;23334;54.316;10.182;2023-06-22T01:22:14;13.00;99.90
37478;DHT22;23334;54.316;10.182;2023-06-22T01:24:51;13.00;99.90
37478;DHT22;23334;54.316;10.182;2023-06-22T01:27:54;13.00;99.90
37478;DHT22;23334;54.316;10.182;2023-06-22T01:30:19;13.10;99.90
37478;DHT22;23334;54.316;10.182;2023-06-22T01:37:37;13.10;99.90
37478;DHT22;23334;54.316;10.182;2023-06-22T01:40:05;13.00;99.90
37478;DHT22;23334;54.316;10.182;2023-06-22T01:42:31;13.00;99.90
37478;DHT22;23334;54.316;10.182;2023-06-22T01:44:58;13.00;99.90
37478;DHT22;23334;54.316;10.182;2023-06-22T01:47:25;13.00;99.90
37478;DHT22;23334;54.316;10.182;2023-06-22T01:49:51;13.00;99.90
37478;DHT22;23334;54.316;10.182;2023-06-22T01:54:43;12.90;99.90
37478;DHT22;23334;54.316;10.182;2023-06-22T01:57:09;12.90;99.90
37478;DHT22;23334;54.316;10.182;2023-06-22T01:59:43;12.90;99.90
37478;DHT22;23334;54.316;10.182;2023-06-22T02:02:15;12.70;99.90
37478;DHT22;23334;54.316;10.182;2023-06-22T02:04:54;12.80;99.90
37478;DHT22;23334;54.316;10.182;2023-06-22T02:07:23;12.70;99.90
37478;DHT22;23334;54.316;10.182;2023-06-22T02:09:51;12.70;99.90
37478;DHT22;23334;54.316;10.182;2023-06-22T02:12:18;12.60;99.90
37478;DHT22;23334;54.316;10.182;2023-06-22T02:14:46;12.60;99.90
37478;DHT22;23334;54.316;10.182;2023-06-22T02:17:12;12.60;99.90
37478;DHT22;23334;54.316;10.182;2023-06-22T02:19:41;12.50;99.90
37478;DHT22;23334;54.316;10.182;2023-06-22T02:22:06;12.50;99.90
37478;DHT22;23334;54.316;10.182;2023-06-22T02:26:59;12.40;99.90
37478;DHT22;23334;54.316;10.182;2023-06-22T02:29:25;12.40;99.90
37478;DHT22;23334;54.316;10.182;2023-06-22T02:31:52;12.40;99.90
37478;DHT22;23334;54.316;10.182;2023-06-22T02:36:45;12.20;99.90
37478;DHT22;23334;54.316;10.182;2023-06-22T02:39:20;12.40;99.90
37478;DHT22;23334;54.316;10.182;2023-06-22T02:44:11;12.40;99.90
37478;DHT22;23334;54.316;10.182;2023-06-22T02:46:37;12.40;99.90
37478;DHT22;23334;54.316;10.182;2023-06-22T02:49:02;12.40;99.90
37478;DHT22;23334;54.316;10.182;2023-06-22T02:53:54;12.40;99.90
37478;DHT22;23334;54.316;10.182;2023-06-22T02:56:22;12.40;99.90
37478;DHT22;23334;54.316;10.182;2023-06-22T03:03:42;12.50;99.90
37478;DHT22;23334;54.316;10.182;2023-06-22T03:06:07;12.50;99.90
37478;DHT22;23334;54.316;10.182;2023-06-22T03:08:33;12.50;99.90
37478;DHT22;23334;54.316;10.182;2023-06-22T03:10:58;12.50;99.90
37478;DHT22;23334;54.316;10.182;2023-06-22T03:13:24;12.60;99.90
37478;DHT22;23334;54.316;10.182;2023-06-22T03:15:49;12.60;99.90
37478;DHT22;23334;54.316;10.182;2023-06-22T03:18:15;12.70;99.90
37478;DHT22;23334;54.316;10.182;2023-06-22T03:20:41;12.70;99.90
37478;DHT22;23334;54.316;10.182;2023-06-22T03:23:06;12.70;99.90
37478;DHT22;23334;54.316;10.182;2023-06-22T03:25:32;12.80;99.90
37478;DHT22;23334;54.316;10.182;2023-06-22T03:30:26;12.80;99.90
37478;DHT22;23334;54.316;10.182;2023-06-22T03:32:51;12.80;99.90
37478;DHT22;23334;54.316;10.182;2023-06-22T03:37:43;12.90;99.90
37478;DHT22;23334;54.316;10.182;2023-06-22T03:40:08;13.00;99.90
37478;DHT22;23334;54.316;10.182;2023-06-22T03:42:34;13.10;99.90
37478;DHT22;23334;54.316;10.182;2023-06-22T03:52:24;13.60;99.90
37478;DHT22;23334;54.316;10.182;2023-06-22T03:54:50;13.60;99.90
37478;DHT22;23334;54.316;10.182;2023-06-22T03:57:16;13.70;99.90
37478;DHT22;23334;54.316;10.182;2023-06-22T04:07:00;14.00;99.90
37478;DHT22;23334;54.316;10.182;2023-06-22T04:09:26;14.00;99.90
37478;DHT22;23334;54.316;10.182;2023-06-22T04:11:51;14.00;99.90
37478;DHT22;23334;54.316;10.182;2023-06-22T04:14:17;14.10;99.90
37478;DHT22;23334;54.316;10.182;2023-06-22T04:16:42;14.10;99.90
37478;DHT22;23334;54.316;10.182;2023-06-22T04:19:08;14.20;99.90
37478;DHT22;23334;54.316;10.182;2023-06-22T04:21:39;14.20;99.90
37478;DHT22;23334;54.316;10.182;2023-06-22T04:24:05;14.40;99.90
37478;DHT22;23334;54.316;10.182;2023-06-22T04:29:05;14.60;99.90
37478;DHT22;23334;54.316;10.182;2023-06-22T04:31:31;14.70;99.90
37478;DHT22;23334;54.316;10.182;2023-06-22T04:36:36;15.00;99.90
37478;DHT22;23334;54.316;10.182;2023-06-22T04:39:05;15.10;99.90
37478;DHT22;23334;54.316;10.182;2023-06-22T04:41:31;15.20;99.90
37478;DHT22;23334;54.316;10.182;2023-06-22T04:44:07;15.40;99.90
37478;DHT22;23334;54.316;10.182;2023-06-22T04:46:32;15.60;99.90
37478;DHT22;23334;54.316;10.182;2023-06-22T04:49:00;15.70;99.90
37478;DHT22;23334;54.316;10.182;2023-06-22T04:51:26;15.90;99.90
37478;DHT22;23334;54.316;10.182;2023-06-22T04:53:55;16.10;99.90
37478;DHT22;23334;54.316;10.182;2023-06-22T04:56:26;16.30;99.90
37478;DHT22;23334;54.316;10.182;2023-06-22T04:58:53;16.50;99.90
37478;DHT22;23334;54.316;10.182;2023-06-22T05:01:21;16.70;99.90
37478;DHT22;23334;54.316;10.182;2023-06-22T05:03:48;17.00;99.90
37478;DHT22;23334;54.316;10.182;2023-06-22T05:06:13;17.20;99.90
37478;DHT22;23334;54.316;10.182;2023-06-22T05:08:40;17.50;99.90
37478;DHT22;23334;54.316;10.182;2023-06-22T05:11:05;17.70;99.90
37478;DHT22;23334;54.316;10.182;2023-06-22T05:13:31;17.80;99.90
37478;DHT22;23334;54.316;10.182;2023-06-22T05:18:30;18.10;99.90
37478;DHT22;23334;54.316;10.182;2023-06-22T05:20:55;18.20;99.90
37478;DHT22;23334;54.316;10.182;2023-06-22T05:25:47;18.60;99.90
37478;DHT22;23334;54.316;10.182;2023-06-22T05:28:12;18.80;99.90
37478;DHT22;23334;54.316;10.182;2023-06-22T05:30:38;18.90;99.90
37478;DHT22;23334;54.316;10.182;2023-06-22T05:40:21;19.70;99.90
37478;DHT22;23334;54.316;10.182;2023-06-22T05:42:47;20.10;99.90
37478;DHT22;23334;54.316;10.182;2023-06-22T05:45:13;20.40;99.90
37478;DHT22;23334;54.316;10.182;2023-06-22T05:47:38;21.10;99.90
37478;DHT22;23334;54.316;10.182;2023-06-22T05:50:05;22.10;99.90
37478;DHT22;23334;54.316;10.182;2023-06-22T05:52:32;23.50;99.90
37478;DHT22;23334;54.316;10.182;2023-06-22T05:57:24;26.60;99.90
37478;DHT22;23334;54.316;10.182;2023-06-22T05:59:49;27.80;99.90
37478;DHT22;23334;54.316;10.182;2023-06-22T06:02:15;28.90;99.90
37478;DHT22;23334;54.316;10.182;2023-06-22T06:04:40;29.60;99.90
37478;DHT22;23334;54.316;10.182;2023-06-22T06:14:23;31.20;87.20
37478;DHT22;23334;54.316;10.182;2023-06-22T06:16:49;31.90;82.20
37478;DHT22;23334;54.316;10.182;2023-06-22T06:19:15;32.10;80.00
37478;DHT22;23334;54.316;10.182;2023-06-22T06:21:40;32.30;76.60
37478;DHT22;23334;54.316;10.182;2023-06-22T06:24:07;32.90;73.70
37478;DHT22;23334;54.316;10.182;2023-06-22T06:26:33;33.40;72.80
37478;DHT22;23334;54.316;10.182;2023-06-22T06:29:01;34.10;69.80
37478;DHT22;23334;54.316;10.182;2023-06-22T06:33:54;34.50;63.50
37478;DHT22;23334;54.316;10.182;2023-06-22T06:38:46;36.00;57.50
37478;DHT22;23334;54.316;10.182;2023-06-22T06:41:14;36.50;53.60
37478;DHT22;23334;54.316;10.182;2023-06-22T06:58:18;36.50;49.10
37478;DHT22;23334;54.316;10.182;2023-06-22T07:03:09;37.50;44.80
37478;DHT22;23334;54.316;10.182;2023-06-22T07:05:35;38.80;43.10
37478;DHT22;23334;54.316;10.182;2023-06-22T07:08:01;39.50;42.60
37478;DHT22;23334;54.316;10.182;2023-06-22T07:10:26;39.90;41.10
37478;DHT22;23334;54.316;10.182;2023-06-22T07:15:18;39.80;39.30
37478;DHT22;23334;54.316;10.182;2023-06-22T07:17:43;40.30;38.50
37478;DHT22;23334;54.316;10.182;2023-06-22T07:20:09;40.50;38.70
37478;DHT22;23334;54.316;10.182;2023-06-22T07:27:36;41.10;38.20
37478;DHT22;23334;54.316;10.182;2023-06-22T07:32:28;42.20;35.30
37478;DHT22;23334;54.316;10.182;2023-06-22T07:34:54;42.30;33.40
37478;DHT22;23334;54.316;10.182;2023-06-22T07:39:45;41.60;34.10
37478;DHT22;23334;54.316;10.182;2023-06-22T07:44:37;40.70;35.00
37478;DHT22;23334;54.316;10.182;2023-06-22T07:47:02;40.20;33.70
37478;DHT22;23334;54.316;10.182;2023-06-22T07:49:28;39.80;34.70
37478;DHT22;23334;54.316;10.182;2023-06-22T07:51:54;40.20;34.20
37478;DHT22;23334;54.316;10.182;2023-06-22T07:59:12;42.20;34.00
37478;DHT22;23334;54.316;10.182;2023-06-22T08:01:37;42.30;31.30
37478;DHT22;23334;54.316;10.182;2023-06-22T08:04:03;41.20;32.70
37478;DHT22;23334;54.316;10.182;2023-06-22T08:06:30;40.60;32.00
37478;DHT22;23334;54.316;10.182;2023-06-22T08:13:50;42.30;31.90
37478;DHT22;23334;54.316;10.182;2023-06-22T08:16:15;41.50;32.90
37478;DHT22;23334;54.316;10.182;2023-06-22T08:28:25;41.80;32.00
37478;DHT22;23334;54.316;10.182;2023-06-22T08:33:16;41.60;32.10
37478;DHT22;23334;54.316;10.182;2023-06-22T08:38:09;40.20;31.30
37478;DHT22;23334;54.316;10.182;2023-06-22T08:45:26;39.00;33.70
37478;DHT22;23334;54.316;10.182;2023-06-22T08:47:51;39.40;32.40
37478;DHT22;23334;54.316;10.182;2023-06-22T08:52:43;39.90;33.70
37478;DHT22;23334;54.316;10.182;2023-06-22T08:57:35;40.20;32.80
37478;DHT22;23334;54.316;10.182;2023-06-22T09:00:05;39.80;31.60
37478;DHT22;23334;54.316;10.182;2023-06-22T09:02:36;40.10;32.30
37478;DHT22;23334;54.316;10.182;2023-06-22T09:05:03;40.20;31.30
37478;DHT22;23334;54.316;10.182;2023-06-22T09:09:55;39.90;32.00
37478;DHT22;23334;54.316;10.182;2023-06-22T09:14:51;40.60;32.60
37478;DHT22;23334;54.316;10.182;2023-06-22T09:19:42;40.90;31.20
37478;DHT22;23334;54.316;10.182;2023-06-22T09:27:00;41.70;31.00
37478;DHT22;23334;54.316;10.182;2023-06-22T09:39:11;40.80;31.30
37478;DHT22;23334;54.316;10.182;2023-06-22T09:41:37;40.30;31.10
37478;DHT22;23334;54.316;10.182;2023-06-22T09:48:55;40.90;32.60
37478;DHT22;23334;54.316;10.182;2023-06-22T09:51:22;41.10;30.80
37478;DHT22;23334;54.316;10.182;2023-06-22T09:56:15;41.80;30.00
37478;DHT22;23334;54.316;10.182;2023-06-22T09:58:42;41.50;29.90
37478;DHT22;23334;54.316;10.182;2023-06-22T10:01:08;40.60;30.50
37478;DHT22;23334;54.316;10.182;2023-06-22T10:03:33;39.70;33.80
37478;DHT22;23334;54.316;10.182;2023-06-22T10:05:59;39.50;33.70
37478;DHT22;23334;54.316;10.182;2023-06-22T10:20:34;38.80;34.80
37478;DHT22;23334;54.316;10.182;2023-06-22T10:22:59;39.10;33.90
37478;DHT22;23334;54.316;10.182;2023-06-22T10:25:26;38.30;36.00
37478;DHT22;23334;54.316;10.182;2023-06-22T10:27:51;37.90;37.00
37478;DHT22;23334;54.316;10.182;2023-06-22T10:30:17;37.00;37.50
37478;DHT22;23334;54.316;10.182;2023-06-22T10:32:42;36.50;37.90
37478;DHT22;23334;54.316;10.182;2023-06-22T10:35:09;36.10;37.70
37478;DHT22;23334;54.316;10.182;2023-06-22T10:37:36;35.30;41.00
37478;DHT22;23334;54.316;10.182;2023-06-22T10:52:12;33.40;46.00
37478;DHT22;23334;54.316;10.182;2023-06-22T10:54:38;32.80;46.70
37478;DHT22;23334;54.316;10.182;2023-06-22T10:57:04;33.00;48.30
37478;DHT22;23334;54.316;10.182;2023-06-22T10:59:29;32.30;49.50
37478;DHT22;23334;54.316;10.182;2023-06-22T11:01:55;32.00;48.80
37478;DHT22;23334;54.316;10.182;2023-06-22T11:04:21;31.90;49.20
37478;DHT22;23334;54.316;10.182;2023-06-22T11:06:48;31.60;49.70
37478;DHT22;23334;54.316;10.182;2023-06-22T11:09:14;31.50;51.20
37478;DHT22;23334;54.316;10.182;2023-06-22T11:11:44;31.40;49.00
37478;DHT22;23334;54.316;10.182;2023-06-22T11:16:35;31.30;50.20
37478;DHT22;23334;54.316;10.182;2023-06-22T11:21:26;31.10;52.00
37478;DHT22;23334;54.316;10.182;2023-06-22T11:26:18;30.00;55.70
37478;DHT22;23334;54.316;10.182;2023-06-22T11:28:43;29.60;57.80
37478;DHT22;23334;54.316;10.182;2023-06-22T11:31:09;29.60;55.60
37478;DHT22;23334;54.316;10.182;2023-06-22T11:33:34;29.20;56.90
37478;DHT22;23334;54.316;10.182;2023-06-22T11:36:00;28.90;57.80
37478;DHT22;23334;54.316;10.182;2023-06-22T11:38:25;28.70;59.00
37478;DHT22;23334;54.316;10.182;2023-06-22T11:45:43;28.40;59.30
37478;DHT22;23334;54.316;10.182;2023-06-22T11:48:08;28.20;61.30
37478;DHT22;23334;54.316;10.182;2023-06-22T11:50:34;28.30;60.90
37478;DHT22;23334;54.316;10.182;2023-06-22T11:53:02;28.30;61.70
37478;DHT22;23334;54.316;10.182;2023-06-22T11:55:28;28.40;61.10
37478;DHT22;23334;54.316;10.182;2023-06-22T11:57:55;28.40;60.20
37478;DHT22;23334;54.316;10.182;2023-06-22T12:00:22;27.90;63.30
37478;DHT22;23334;54.316;10.182;2023-06-22T12:02:50;28.40;65.80
37478;DHT22;23334;54.316;10.182;2023-06-22T12:12:36;29.10;58.70
37478;DHT22;23334;54.316;10.182;2023-06-22T12:15:01;29.10;59.60
37478;DHT22;23334;54.316;10.182;2023-06-22T12:17:31;29.20;62.00
37478;DHT22;23334;54.316;10.182;2023-06-22T12:22:24;29.20;58.30
37478;DHT22;23334;54.316;10.182;2023-06-22T12:24:50;29.20;57.40
37478;DHT22;23334;54.316;10.182;2023-06-22T12:27:16;28.90;58.10
37478;DHT22;23334;54.316;10.182;2023-06-22T12:34:35;28.90;57.70
37478;DHT22;23334;54.316;10.182;2023-06-22T12:39:28;28.90;58.20
37478;DHT22;23334;54.316;10.182;2023-06-22T12:46:45;28.20;57.20
37478;DHT22;23334;54.316;10.182;2023-06-22T12:51:40;28.10;58.00
37478;DHT22;23334;54.316;10.182;2023-06-22T12:54:06;28.10;59.50
37478;DHT22;23334;54.316;10.182;2023-06-22T12:58:58;27.80;61.20
37478;DHT22;23334;54.316;10.182;2023-06-22T13:13:33;28.40;62.70
37478;DHT22;23334;54.316;10.182;2023-06-22T13:20:51;28.20;61.60
37478;DHT22;23334;54.316;10.182;2023-06-22T13:25:44;28.30;62.10
37478;DHT22;23334;54.316;10.182;2023-06-22T13:33:03;28.10;61.00
37478;DHT22;23334;54.316;10.182;2023-06-22T13:35:29;27.90;58.70
37478;DHT22;23334;54.316;10.182;2023-06-22T13:45:12;27.80;58.50
37478;DHT22;23334;54.316;10.182;2023-06-22T13:47:37;27.50;57.20
37478;DHT22;23334;54.316;10.182;2023-06-22T13:52:29;27.40;59.20
37478;DHT22;23334;54.316;10.182;2023-06-22T14:09:30;27.10;60.70
37478;DHT22;23334;54.316;10.182;2023-06-22T14:11:56;27.10;60.80
37478;DHT22;23334;54.316;10.182;2023-06-22T14:14:21;27.20;62.40
37478;DHT22;23334;54.316;10.182;2023-06-22T14:21:40;27.00;61.50
37478;DHT22;23334;54.316;10.182;2023-06-22T14:24:06;27.00;62.10
37478;DHT22;23334;54.316;10.182;2023-06-22T14:26:31;27.20;62.70
37478;DHT22;23334;54.316;10.182;2023-06-22T14:33:50;27.40;62.30
37478;DHT22;23334;54.316;10.182;2023-06-22T14:36:16;27.20;61.30
37478;DHT22;23334;54.316;10.182;2023-06-22T14:38:43;26.90;63.10
37478;DHT22;23334;54.316;10.182;2023-06-22T14:41:08;26.70;63.90
37478;DHT22;23334;54.316;10.182;2023-06-22T14:46:00;26.30;64.80
37478;DHT22;23334;54.316;10.182;2023-06-22T14:53:19;26.10;66.50
37478;DHT22;23334;54.316;10.182;2023-06-22T14:55:44;26.00;66.10
37478;DHT22;23334;54.316;10.182;2023-06-22T14:58:10;26.00;65.80
37478;DHT22;23334;54.316;10.182;2023-06-22T15:07:56;26.10;66.50
37478;DHT22;23334;54.316;10.182;2023-06-22T15:27:24;26.80;63.20
37478;DHT22;23334;54.316;10.182;2023-06-22T15:29:50;26.70;59.80
37478;DHT22;23334;54.316;10.182;2023-06-22T15:32:15;26.50;60.40
37478;DHT22;23334;54.316;10.182;2023-06-22T15:34:41;26.30;61.00
37478;DHT22;23334;54.316;10.182;2023-06-22T15:41:58;25.60;62.40
37478;DHT22;23334;54.316;10.182;2023-06-22T15:49:16;25.20;60.10
37478;DHT22;23334;54.316;10.182;2023-06-22T15:59:00;25.10;61.30
37478;DHT22;23334;54.316;10.182;2023-06-22T16:03:52;25.20;61.50
37478;DHT22;23334;54.316;10.182;2023-06-22T16:06:18;25.30;62.30
37478;DHT22;23334;54.316;10.182;2023-06-22T16:08:44;25.30;62.60
37478;DHT22;23334;54.316;10.182;2023-06-22T16:11:10;25.20;62.50
37478;DHT22;23334;54.316;10.182;2023-06-22T16:16:02;25.00;62.40
37478;DHT22;23334;54.316;10.182;2023-06-22T16:25:45;24.70;64.80
37478;DHT22;23334;54.316;10.182;2023-06-22T16:33:04;24.50;66.50
37478;DHT22;23334;54.316;10.182;2023-06-22T16:35:29;24.40;66.00
37478;DHT22;23334;54.316;10.182;2023-06-22T16:37:55;24.30;65.20
37478;DHT22;23334;54.316;10.182;2023-06-22T16:40:24;24.20;63.90
37478;DHT22;23334;54.316;10.182;2023-06-22T16:45:17;24.10;65.70
37478;DHT22;23334;54.316;10.182;2023-06-22T16:47:45;24.10;66.80
37478;DHT22;23334;54.316;10.182;2023-06-22T16:52:37;24.10;67.50
37478;DHT22;23334;54.316;10.182;2023-06-22T16:55:05;24.00;66.70
37478;DHT22;23334;54.316;10.182;2023-06-22T16:57:31;24.00;66.30
37478;DHT22;23334;54.316;10.182;2023-06-22T16:59:56;23.90;67.80
37478;DHT22;23334;54.316;10.182;2023-06-22T17:02:23;23.80;68.70
37478;DHT22;23334;54.316;10.182;2023-06-22T17:04:54;23.80;70.70
37478;DHT22;23334;54.316;10.182;2023-06-22T17:07:21;23.80;71.20
37478;DHT22;23334;54.316;10.182;2023-06-22T17:09:48;23.70;69.70
37478;DHT22;23334;54.316;10.182;2023-06-22T17:12:15;23.60;69.10
37478;DHT22;23334;54.316;10.182;2023-06-22T17:14:42;23.60;68.10
37478;DHT22;23334;54.316;10.182;2023-06-22T17:17:16;23.60;66.30
37478;DHT22;23334;54.316;10.182;2023-06-22T17:22:08;23.50;66.90
37478;DHT22;23334;54.316;10.182;2023-06-22T17:24:35;23.40;66.90
37478;DHT22;23334;54.316;10.182;2023-06-22T17:29:31;23.30;68.70
37478;DHT22;23334;54.316;10.182;2023-06-22T17:34:26;23.30;67.40
37478;DHT22;23334;54.316;10.182;2023-06-22T17:36:54;23.30;68.20
37478;DHT22;23334;54.316;10.182;2023-06-22T17:39:24;23.20;70.40
37478;DHT22;23334;54.316;10.182;2023-06-22T17:44:26;23.20;72.90
37478;DHT22;23334;54.316;10.182;2023-06-22T17:46:57;23.20;72.20
37478;DHT22;23334;54.316;10.182;2023-06-22T17:49:30;23.20;71.70
37478;DHT22;23334;54.316;10.182;2023-06-22T17:54:23;23.10;72.50
37478;DHT22;23334;54.316;10.182;2023-06-22T17:56:54;23.00;73.00
37478;DHT22;23334;54.316;10.182;2023-06-22T17:59:20;22.90;73.30
37478;DHT22;23334;54.316;10.182;2023-06-22T18:01:46;22.90;74.00
37478;DHT22;23334;54.316;10.182;2023-06-22T18:04:16;22.80;75.70
37478;DHT22;23334;54.316;10.182;2023-06-22T18:06:45;22.70;77.00
37478;DHT22;23334;54.316;10.182;2023-06-22T18:09:14;22.70;77.80
37478;DHT22;23334;54.316;10.182;2023-06-22T18:11:49;22.70;78.30
37478;DHT22;23334;54.316;10.182;2023-06-22T18:14:17;22.70;78.80
37478;DHT22;23334;54.316;10.182;2023-06-22T18:16:44;22.60;80.50
37478;DHT22;23334;54.316;10.182;2023-06-22T18:19:10;22.60;79.30
37478;DHT22;23334;54.316;10.182;2023-06-22T18:24:05;22.60;78.70
37478;DHT22;23334;54.316;10.182;2023-06-22T18:26:31;22.60;80.50
37478;DHT22;23334;54.316;10.182;2023-06-22T18:28:57;22.50;81.20
37478;DHT22;23334;54.316;10.182;2023-06-22T18:31:24;22.50;78.80
37478;DHT22;23334;54.316;10.182;2023-06-22T18:33:56;22.40;79.50
37478;DHT22;23334;54.316;10.182;2023-06-22T18:36:46;22.40;81.10
37478;DHT22;23334;54.316;10.182;2023-06-22T18:41:41;22.40;79.90
37478;DHT22;23334;54.316;10.182;2023-06-22T18:44:33;22.40;79.20
37478;DHT22;23334;54.316;10.182;2023-06-22T18:46:59;22.30;79.60
37478;DHT22;23334;54.316;10.182;2023-06-22T18:49:52;22.20;81.00
37478;DHT22;23334;54.316;10.182;2023-06-22T18:52:23;22.20;79.80
37478;DHT22;23334;54.316;10.182;2023-06-22T18:57:23;22.10;81.30
37478;DHT22;23334;54.316;10.182;2023-06-22T19:00:00;22.00;81.80
37478;DHT22;23334;54.316;10.182;2023-06-22T19:02:40;21.90;84.60
37478;DHT22;23334;54.316;10.182;2023-06-22T19:15:38;21.60;89.00
37478;DHT22;23334;54.316;10.182;2023-06-22T19:18:17;21.60;90.00
37478;DHT22;23334;54.316;10.182;2023-06-22T19:21:01;21.50;89.80
37478;DHT22;23334;54.316;10.182;2023-06-22T19:25:54;21.40;91.20
37478;DHT22;23334;54.316;10.182;2023-06-22T19:28:23;21.40;91.60
37478;DHT22;23334;54.316;10.182;2023-06-22T19:30:51;21.30;92.10
37478;DHT22;23334;54.316;10.182;2023-06-22T19:40:38;21.00;93.80
37478;DHT22;23334;54.316;10.182;2023-06-22T19:43:06;21.00;94.30
37478;DHT22;23334;54.316;10.182;2023-06-22T19:45:31;21.00;95.20
37478;DHT22;23334;54.316;10.182;2023-06-22T19:47:57;20.90;95.40
37478;DHT22;23334;54.316;10.182;2023-06-22T19:50:22;20.80;95.60
37478;DHT22;23334;54.316;10.182;2023-06-22T19:52:48;20.80;95.60
37478;DHT22;23334;54.316;10.182;2023-06-22T19:55:14;20.70;96.10
37478;DHT22;23334;54.316;10.182;2023-06-22T19:57:41;20.70;95.80
37478;DHT22;23334;54.316;10.182;2023-06-22T20:00:12;20.60;96.30
37478;DHT22;23334;54.316;10.182;2023-06-22T20:02:43;20.60;96.80
37478;DHT22;23334;54.316;10.182;2023-06-22T20:05:10;20.50;97.30
37478;DHT22;23334;54.316;10.182;2023-06-22T20:07:37;20.50;97.80
37478;DHT22;23334;54.316;10.182;2023-06-22T20:10:11;20.50;98.60
37478;DHT22;23334;54.316;10.182;2023-06-22T20:12:37;20.40;98.40
37478;DHT22;23334;54.316;10.182;2023-06-22T20:15:18;20.40;99.10
37478;DHT22;23334;54.316;10.182;2023-06-22T20:17:45;20.40;99.80
37478;DHT22;23334;54.316;10.182;2023-06-22T20:20:24;20.40;99.90
37478;DHT22;23334;54.316;10.182;2023-06-22T20:25:23;20.30;99.90
37478;DHT22;23334;54.316;10.182;2023-06-22T20:27:49;20.40;99.90
37478;DHT22;23334;54.316;10.182;2023-06-22T20:30:16;20.40;99.90
37478;DHT22;23334;54.316;10.182;2023-06-22T20:32:49;20.40;99.90
37478;DHT22;23334;54.316;10.182;2023-06-22T20:35:16;20.40;99.90
37478;DHT22;23334;54.316;10.182;2023-06-22T20:37:42;20.30;99.90
37478;DHT22;23334;54.316;10.182;2023-06-22T20:40:08;20.40;99.90
37478;DHT22;23334;54.316;10.182;2023-06-22T20:42:37;20.40;99.90
37478;DHT22;23334;54.316;10.182;2023-06-22T20:45:04;20.40;99.90
37478;DHT22;23334;54.316;10.182;2023-06-22T20:47:30;20.40;99.90
37478;DHT22;23334;54.316;10.182;2023-06-22T20:49:55;20.40;99.90
37478;DHT22;23334;54.316;10.182;2023-06-22T20:52:28;20.40;99.90
37478;DHT22;23334;54.316;10.182;2023-06-22T20:54:54;20.40;99.90
37478;DHT22;23334;54.316;10.182;2023-06-22T20:57:20;20.40;99.90
37478;DHT22;23334;54.316;10.182;2023-06-22T20:59:46;20.40;99.90
37478;DHT22;23334;54.316;10.182;2023-06-22T21:02:12;20.40;99.90
37478;DHT22;23334;54.316;10.182;2023-06-22T21:09:32;20.40;99.90
37478;DHT22;23334;54.316;10.182;2023-06-22T21:11:58;20.30;99.90
37478;DHT22;23334;54.316;10.182;2023-06-22T21:14:24;20.30;99.90
37478;DHT22;23334;54.316;10.182;2023-06-22T21:16:50;20.30;99.90
37478;DHT22;23334;54.316;10.182;2023-06-22T21:19:15;20.20;99.90
37478;DHT22;23334;54.316;10.182;2023-06-22T21:21:42;20.30;99.90
37478;DHT22;23334;54.316;10.182;2023-06-22T21:24:07;20.20;99.90
37478;DHT22;23334;54.316;10.182;2023-06-22T21:26:33;20.20;99.90
37478;DHT22;23334;54.316;10.182;2023-06-22T21:28:58;20.20;99.90
37478;DHT22;23334;54.316;10.182;2023-06-22T21:31:24;20.20;99.90
37478;DHT22;23334;54.316;10.182;2023-06-22T21:33:49;20.20;99.90
37478;DHT22;23334;54.316;10.182;2023-06-22T21:36:15;20.20;99.90
37478;DHT22;23334;54.316;10.182;2023-06-22T21:38:40;20.20;99.90
37478;DHT22;23334;54.316;10.182;2023-06-22T21:41:06;20.20;99.90
37478;DHT22;23334;54.316;10.182;2023-06-22T21:45:57;20.20;99.90
37478;DHT22;23334;54.316;10.182;2023-06-22T21:48:23;20.20;99.90
37478;DHT22;23334;54.316;10.182;2023-06-22T21:50:48;20.10;99.90
37478;DHT22;23334;54.316;10.182;2023-06-22T22:00:32;20.00;99.90
37478;DHT22;23334;54.316;10.182;2023-06-22T22:02:57;20.00;99.90
37478;DHT22;23334;54.316;10.182;2023-06-22T22:05:22;20.00;99.90
37478;DHT22;23334;54.316;10.182;2023-06-22T22:07:48;20.00;99.90
37478;DHT22;23334;54.316;10.182;2023-06-22T22:15:07;19.90;99.90
37478;DHT22;23334;54.316;10.182;2023-06-22T22:17:32;19.90;99.90
37478;DHT22;23334;54.316;10.182;2023-06-22T22:22:26;19.90;99.90
37478;DHT22;23334;54.316;10.182;2023-06-22T22:27:17;19.90;99.90
37478;DHT22;23334;54.316;10.182;2023-06-22T22:29:42;19.90;99.90
37478;DHT22;23334;54.316;10.182;2023-06-22T22:32:08;19.90;99.90
37478;DHT22;23334;54.316;10.182;2023-06-22T22:34:33;19.80;99.90
37478;DHT22;23334;54.316;10.182;2023-06-22T22:36:59;19.80;99.90